createdAt,value
2018-04-23T00:00:58.242Z,19.31
2018-04-23T00:01:58.338Z,19.29
2018-04-23T00:02:58.339Z,19.32
2018-04-23T00:03:58.212Z,19.29
2018-04-23T00:04:58.329Z,19.29
2018-04-23T00:05:58.430Z,19.29
2018-04-23T00:06:58.299Z,19.31
2018-04-23T00:07:58.370Z,19.31
2018-04-23T00:08:58.348Z,19.32
2018-04-23T00:09:58.320Z,19.3
2018-04-23T00:10:58.164Z,19.31
2018-04-23T00:11:58.221Z,19.31
2018-04-23T00:12:58.309Z,19.29
2018-04-23T00:13:58.304Z,19.3
2018-04-23T00:14:58.451Z,19.29
2018-04-23T00:15:58.355Z,19.29
2018-04-23T00:16:58.425Z,19.3
2018-04-23T00:17:58.474Z,19.3
2018-04-23T00:18:58.281Z,19.29
2018-04-23T00:19:58.258Z,19.29
2018-04-23T00:20:58.223Z,19.3
2018-04-23T00:21:58.228Z,19.3
2018-04-23T00:22:58.523Z,19.3
2018-04-23T00:23:58.365Z,19.31
2018-04-23T00:24:58.267Z,19.3
2018-04-23T00:25:58.203Z,19.29
2018-04-23T00:26:58.332Z,19.29
2018-04-23T00:27:58.412Z,19.28
2018-04-23T00:28:58.376Z,19.29
2018-04-23T00:29:58.255Z,19.29
2018-04-23T00:30:58.256Z,19.29
2018-04-23T00:31:58.606Z,19.29
2018-04-23T00:32:58.300Z,19.29
2018-04-23T00:33:58.289Z,19.28
2018-04-23T00:34:58.403Z,19.3
2018-04-23T00:35:59.931Z,19.29
2018-04-23T00:36:58.264Z,19.29
2018-04-23T00:37:58.489Z,19.29
2018-04-23T00:38:58.421Z,19.29
2018-04-23T00:39:58.411Z,19.28
2018-04-23T00:40:58.348Z,19.29
2018-04-23T00:41:58.252Z,19.29
2018-04-23T00:42:58.337Z,19.28
2018-04-23T00:43:58.344Z,19.28
2018-04-23T00:44:58.344Z,19.27
2018-04-23T00:45:58.203Z,19.27
2018-04-23T00:46:58.287Z,19.29
2018-04-23T00:47:58.223Z,19.27
2018-04-23T00:48:58.157Z,19.28
2018-04-23T00:49:58.342Z,19.27
2018-04-23T00:50:58.378Z,19.27
2018-04-23T00:51:58.298Z,19.29
2018-04-23T00:52:58.401Z,19.28
2018-04-23T00:53:58.541Z,19.27
2018-04-23T00:54:58.164Z,19.26
2018-04-23T00:55:58.354Z,19.29
2018-04-23T00:56:58.443Z,19.28
2018-04-23T00:57:58.381Z,19.27
2018-04-23T00:58:58.282Z,19.27
2018-04-23T00:59:58.216Z,19.28
2018-04-23T01:00:58.369Z,19.29
2018-04-23T01:01:58.373Z,19.26
2018-04-23T01:02:58.351Z,19.28
2018-04-23T01:03:58.310Z,19.25
2018-04-23T01:04:58.263Z,19.26
2018-04-23T01:05:58.243Z,19.27
2018-04-23T01:06:58.401Z,19.28
2018-04-23T01:07:58.196Z,19.26
2018-04-23T01:08:58.304Z,19.27
2018-04-23T01:09:58.139Z,19.27
2018-04-23T01:10:58.285Z,19.26
2018-04-23T01:11:58.213Z,19.27
2018-04-23T01:12:58.324Z,19.25
2018-04-23T01:13:57.995Z,19.26
2018-04-23T01:14:58.256Z,19.26
2018-04-23T01:15:58.366Z,19.24
2018-04-23T01:16:58.189Z,19.26
2018-04-23T01:17:58.336Z,19.26
2018-04-23T01:18:58.239Z,19.26
2018-04-23T01:19:58.294Z,19.25
2018-04-23T01:20:58.353Z,19.24
2018-04-23T01:21:58.182Z,19.23
2018-04-23T01:22:58.422Z,19.24
2018-04-23T01:23:58.185Z,19.25
2018-04-23T01:24:58.184Z,19.25
2018-04-23T01:25:58.336Z,19.26
2018-04-23T01:26:58.293Z,19.25
2018-04-23T01:27:58.227Z,19.24
2018-04-23T01:28:58.535Z,19.25
2018-04-23T01:29:58.212Z,19.27
2018-04-23T01:30:58.504Z,19.22
2018-04-23T01:31:58.328Z,19.25
2018-04-23T01:32:58.195Z,19.25
2018-04-23T01:33:58.342Z,19.25
2018-04-23T01:34:58.191Z,19.24
2018-04-23T01:35:58.471Z,19.23
2018-04-23T01:36:58.292Z,19.24
2018-04-23T01:37:58.358Z,19.23
2018-04-23T01:38:58.014Z,19.25
2018-04-23T01:39:58.288Z,19.25
2018-04-23T01:40:58.313Z,19.24
2018-04-23T01:41:58.332Z,19.24
2018-04-23T01:42:58.307Z,19.25
2018-04-23T01:43:58.245Z,19.23
2018-04-23T01:44:58.198Z,19.22
2018-04-23T01:45:58.317Z,19.22
2018-04-23T01:46:58.233Z,19.24
2018-04-23T01:47:58.306Z,19.25
2018-04-23T01:48:58.308Z,19.24
2018-04-23T01:49:58.335Z,19.24
2018-04-23T01:50:58.275Z,19.24
2018-04-23T01:51:58.281Z,19.21
2018-04-23T01:52:58.113Z,19.22
2018-04-23T01:53:58.234Z,19.23
2018-04-23T01:54:58.372Z,19.23
2018-04-23T01:55:58.350Z,19.23
2018-04-23T01:56:58.207Z,19.25
2018-04-23T01:57:58.282Z,19.23
2018-04-23T01:58:58.091Z,19.24
2018-04-23T01:59:58.313Z,19.23
2018-04-23T02:00:58.269Z,19.22
2018-04-23T02:01:58.268Z,19.22
2018-04-23T02:02:58.212Z,19.24
2018-04-23T02:03:58.201Z,19.24
2018-04-23T02:04:58.244Z,19.24
2018-04-23T02:05:58.319Z,19.22
2018-04-23T02:06:58.151Z,19.18
2018-04-23T02:07:58.218Z,19.21
2018-04-23T02:08:58.167Z,19.26
2018-04-23T02:09:58.254Z,19.21
2018-04-23T02:10:58.342Z,19.24
2018-04-23T02:11:58.426Z,19.22
2018-04-23T02:12:58.266Z,19.23
2018-04-23T02:13:58.149Z,19.22
2018-04-23T02:14:58.282Z,19.21
2018-04-23T02:15:58.212Z,19.22
2018-04-23T02:16:58.269Z,19.22
2018-04-23T02:17:58.292Z,19.21
2018-04-23T02:18:58.295Z,19.2
2018-04-23T02:19:58.596Z,19.21
2018-04-23T02:20:58.389Z,19.21
2018-04-23T02:21:58.354Z,19.2
2018-04-23T02:22:58.380Z,19.22
2018-04-23T02:23:58.204Z,19.2
2018-04-23T02:24:58.296Z,19.21
2018-04-23T02:25:58.310Z,19.22
2018-04-23T02:26:58.270Z,19.2
2018-04-23T02:27:58.451Z,19.22
2018-04-23T02:28:59.228Z,19.21
2018-04-23T02:29:58.215Z,19.21
2018-04-23T02:30:58.309Z,19.21
2018-04-23T02:31:58.312Z,19.21
2018-04-23T02:32:58.297Z,19.21
2018-04-23T02:33:58.427Z,19.2
2018-04-23T02:34:58.079Z,19.21
2018-04-23T02:35:58.308Z,19.21
2018-04-23T02:36:58.367Z,19.2
2018-04-23T02:37:58.430Z,19.2
2018-04-23T02:38:58.150Z,19.21
2018-04-23T02:39:58.191Z,19.2
2018-04-23T02:40:58.147Z,19.21
2018-04-23T02:41:58.142Z,19.21
2018-04-23T02:42:58.274Z,19.21
2018-04-23T02:43:58.347Z,19.22
2018-04-23T02:44:58.368Z,19.21
2018-04-23T02:45:58.318Z,19.18
2018-04-23T02:46:58.227Z,19.21
2018-04-23T02:47:58.358Z,19.23
2018-04-23T02:48:58.262Z,19.17
2018-04-23T02:49:58.251Z,19.21
2018-04-23T02:50:58.377Z,19.21
2018-04-23T02:51:58.403Z,19.2
2018-04-23T02:52:58.369Z,19.17
2018-04-23T02:53:58.305Z,19.18
2018-04-23T02:54:58.336Z,19.2
2018-04-23T02:55:58.205Z,19.17
2018-04-23T02:56:58.140Z,19.2
2018-04-23T02:57:58.284Z,19.2
2018-04-23T02:58:58.235Z,19.2
2018-04-23T02:59:58.487Z,19.18
2018-04-23T03:00:58.261Z,19.18
2018-04-23T03:01:58.308Z,19.2
2018-04-23T03:02:58.169Z,19.17
2018-04-23T03:03:58.261Z,19.2
2018-04-23T03:04:58.183Z,19.2
2018-04-23T03:05:58.378Z,19.2
2018-04-23T03:06:58.156Z,19.18
2018-04-23T03:07:58.203Z,19.18
2018-04-23T03:08:58.320Z,19.18
2018-04-23T03:09:58.263Z,19.18
2018-04-23T03:10:58.235Z,19.18
2018-04-23T03:11:58.321Z,19.17
2018-04-23T03:12:58.246Z,19.17
2018-04-23T03:13:58.490Z,19.17
2018-04-23T03:14:58.225Z,19.17
2018-04-23T03:15:58.211Z,19.17
2018-04-23T03:16:58.110Z,19.18
2018-04-23T03:17:58.276Z,19.17
2018-04-23T03:18:58.326Z,19.17
2018-04-23T03:19:58.266Z,19.17
2018-04-23T03:20:58.302Z,19.21
2018-04-23T03:21:58.138Z,19.17
2018-04-23T03:22:58.197Z,19.2
2018-04-23T03:23:58.325Z,19.2
2018-04-23T03:24:58.319Z,19.16
2018-04-23T03:25:58.342Z,19.18
2018-04-23T03:26:58.263Z,19.16
2018-04-23T03:27:58.279Z,19.2
2018-04-23T03:28:58.308Z,19.17
2018-04-23T03:29:58.247Z,19.18
2018-04-23T03:30:58.453Z,19.17
2018-04-23T03:31:58.164Z,19.17
2018-04-23T03:32:58.257Z,19.18
2018-04-23T03:33:58.140Z,19.17
2018-04-23T03:34:58.281Z,19.18
2018-04-23T03:35:58.209Z,19.17
2018-04-23T03:36:58.289Z,19.16
2018-04-23T03:37:58.088Z,19.16
2018-04-23T03:38:58.208Z,19.17
2018-04-23T03:39:58.243Z,19.15
2018-04-23T03:40:58.212Z,19.17
2018-04-23T03:41:58.415Z,19.17
2018-04-23T03:42:58.214Z,19.16
2018-04-23T03:43:58.300Z,19.17
2018-04-23T03:44:58.052Z,19.16
2018-04-23T03:45:58.258Z,19.15
2018-04-23T03:46:58.192Z,19.14
2018-04-23T03:47:58.146Z,19.16
2018-04-23T03:48:58.275Z,19.15
2018-04-23T03:49:58.145Z,19.17
2018-04-23T03:50:58.125Z,19.16
2018-04-23T03:51:58.242Z,19.17
2018-04-23T03:52:58.236Z,19.17
2018-04-23T03:53:58.199Z,19.16
2018-04-23T03:54:58.290Z,19.16
2018-04-23T03:55:58.117Z,19.17
2018-04-23T03:56:58.086Z,19.17
2018-04-23T03:57:58.188Z,19.15
2018-04-23T03:58:58.196Z,19.14
2018-04-23T03:59:58.262Z,19.17
2018-04-23T04:00:58.293Z,19.16
2018-04-23T04:01:58.279Z,19.15
2018-04-23T04:02:58.134Z,19.14
2018-04-23T04:03:58.271Z,19.14
2018-04-23T04:04:58.560Z,19.17
2018-04-23T04:05:58.156Z,19.15
2018-04-23T04:06:58.168Z,19.17
2018-04-23T04:07:58.210Z,19.17
2018-04-23T04:08:58.200Z,19.16
2018-04-23T04:09:58.325Z,19.13
2018-04-23T04:10:58.314Z,19.14
2018-04-23T04:11:58.205Z,19.15
2018-04-23T04:12:58.207Z,19.13
2018-04-23T04:13:58.185Z,19.14
2018-04-23T04:14:58.267Z,19.14
2018-04-23T04:15:58.454Z,19.16
2018-04-23T04:16:58.612Z,19.15
2018-04-23T04:17:58.166Z,19.16
2018-04-23T04:18:58.135Z,19.13
2018-04-23T04:19:58.193Z,19.13
2018-04-23T04:20:58.213Z,19.14
2018-04-23T04:21:58.143Z,19.14
2018-04-23T04:22:58.345Z,19.15
2018-04-23T04:23:58.120Z,19.15
2018-04-23T04:24:58.260Z,19.15
2018-04-23T04:25:58.164Z,19.13
2018-04-23T04:26:58.105Z,19.15
2018-04-23T04:27:58.210Z,19.14
2018-04-23T04:28:58.360Z,19.16
2018-04-23T04:29:58.379Z,19.16
2018-04-23T04:30:58.188Z,19.13
2018-04-23T04:31:58.176Z,19.16
2018-04-23T04:32:58.309Z,19.15
2018-04-23T04:33:58.201Z,19.15
2018-04-23T04:34:58.079Z,19.17
2018-04-23T04:35:58.454Z,19.15
2018-04-23T04:36:58.277Z,19.15
2018-04-23T04:37:58.234Z,19.14
2018-04-23T04:38:58.288Z,19.15
2018-04-23T04:39:58.321Z,19.13
2018-04-23T04:40:58.230Z,19.13
2018-04-23T04:41:58.199Z,19.16
2018-04-23T04:42:58.125Z,19.13
2018-04-23T04:43:58.520Z,19.14
2018-04-23T04:44:58.213Z,19.15
2018-04-23T04:45:58.138Z,19.13
2018-04-23T04:46:57.933Z,19.17
2018-04-23T04:47:58.128Z,19.14
2018-04-23T04:48:58.124Z,19.14
2018-04-23T04:49:58.091Z,19.13
2018-04-23T04:50:58.259Z,19.15
2018-04-23T04:51:58.156Z,19.15
2018-04-23T04:52:58.324Z,19.16
2018-04-23T04:53:58.308Z,19.14
2018-04-23T04:54:58.166Z,19.16
2018-04-23T04:55:58.202Z,19.14
2018-04-23T04:56:58.111Z,19.15
2018-04-23T04:57:58.186Z,19.13
2018-04-23T04:58:58.259Z,19.13
2018-04-23T04:59:58.245Z,19.15
2018-04-23T05:00:58.358Z,19.14
2018-04-23T05:01:58.187Z,19.13
2018-04-23T05:02:58.356Z,19.16
2018-04-23T05:03:58.305Z,19.13
2018-04-23T05:04:58.294Z,19.15
2018-04-23T05:05:58.459Z,19.15
2018-04-23T05:06:58.204Z,19.14
2018-04-23T05:07:58.129Z,19.15
2018-04-23T05:08:58.062Z,19.16
2018-04-23T05:09:58.134Z,19.15
2018-04-23T05:10:58.366Z,19.13
2018-04-23T05:11:58.304Z,19.17
2018-04-23T05:12:58.300Z,19.13
2018-04-23T05:13:58.387Z,19.14
2018-04-23T05:14:58.068Z,19.16
2018-04-23T05:15:58.120Z,19.13
2018-04-23T05:16:58.109Z,19.15
2018-04-23T05:17:58.153Z,19.15
2018-04-23T05:18:58.160Z,19.14
2018-04-23T05:19:58.239Z,19.13
2018-04-23T05:20:58.345Z,19.13
2018-04-23T05:21:58.276Z,19.14
2018-04-23T05:22:58.074Z,19.16
2018-04-23T05:23:58.168Z,19.14
2018-04-23T05:24:58.077Z,19.15
2018-04-23T05:25:58.319Z,19.15
2018-04-23T05:26:58.156Z,19.15
2018-04-23T05:27:58.107Z,19.16
2018-04-23T05:28:58.209Z,19.14
2018-04-23T05:29:58.345Z,19.17
2018-04-23T05:30:58.201Z,19.13
2018-04-23T05:31:58.333Z,19.13
2018-04-23T05:32:58.266Z,19.16
2018-04-23T05:33:58.094Z,19.14
2018-04-23T05:34:58.108Z,19.14
2018-04-23T05:35:58.043Z,19.16
2018-04-23T05:36:58.277Z,19.15
2018-04-23T05:37:58.123Z,19.17
2018-04-23T05:38:58.129Z,19.18
2018-04-23T05:39:58.208Z,19.13
2018-04-23T05:40:58.195Z,19.14
2018-04-23T05:41:58.231Z,19.17
2018-04-23T05:42:58.172Z,19.14
2018-04-23T05:43:58.451Z,19.16
2018-04-23T05:44:58.169Z,19.15
2018-04-23T05:45:58.235Z,19.14
2018-04-23T05:46:58.225Z,19.16
2018-04-23T05:47:58.577Z,19.14
2018-04-23T05:48:58.318Z,19.14
2018-04-23T05:49:57.968Z,19.13
2018-04-23T05:50:58.180Z,19.16
2018-04-23T05:51:58.115Z,19.15
2018-04-23T05:52:58.083Z,19.17
2018-04-23T05:53:58.085Z,19.16
2018-04-23T05:54:58.355Z,19.16
2018-04-23T05:55:58.059Z,19.15
2018-04-23T05:56:58.244Z,19.16
2018-04-23T05:57:58.154Z,19.16
2018-04-23T05:58:58.138Z,19.17
2018-04-23T05:59:58.248Z,19.16
2018-04-23T06:00:58.068Z,19.15
2018-04-23T06:01:58.146Z,19.14
2018-04-23T06:02:58.081Z,19.18
2018-04-23T06:03:58.069Z,19.14
2018-04-23T06:04:58.269Z,19.14
2018-04-23T06:05:58.301Z,19.17
2018-04-23T06:06:58.068Z,19.15
2018-04-23T06:07:58.284Z,19.17
2018-04-23T06:08:58.208Z,19.16
2018-04-23T06:09:58.194Z,19.14
2018-04-23T06:10:58.156Z,19.14
2018-04-23T06:11:58.221Z,19.16
2018-04-23T06:12:58.182Z,19.16
2018-04-23T06:13:58.175Z,19.15
2018-04-23T06:14:58.020Z,19.16
2018-04-23T06:15:58.184Z,19.15
2018-04-23T06:16:58.273Z,19.14
2018-04-23T06:17:58.244Z,19.17
2018-04-23T06:18:58.209Z,19.17
2018-04-23T06:19:58.118Z,19.16
2018-04-23T06:20:58.094Z,19.16
2018-04-23T06:21:58.172Z,19.18
2018-04-23T06:22:58.219Z,19.22
2018-04-23T06:23:58.066Z,19.21
2018-04-23T06:24:58.081Z,19.21
2018-04-23T06:25:58.199Z,19.21
2018-04-23T06:26:58.134Z,19.25
2018-04-23T06:27:58.267Z,19.23
2018-04-23T06:28:58.213Z,19.25
2018-04-23T06:29:58.307Z,19.27
2018-04-23T06:30:58.200Z,19.26
2018-04-23T06:31:58.294Z,19.28
2018-04-23T06:32:58.193Z,19.3
2018-04-23T06:33:58.139Z,19.3
2018-04-23T06:34:58.250Z,19.31
2018-04-23T06:35:58.291Z,19.31
2018-04-23T06:36:58.325Z,19.32
2018-04-23T06:37:58.089Z,19.35
2018-04-23T06:38:58.076Z,19.37
2018-04-23T06:39:58.056Z,19.37
2018-04-23T06:40:58.158Z,19.4
2018-04-23T06:41:58.205Z,19.39
2018-04-23T06:42:58.384Z,19.39
2018-04-23T06:43:58.249Z,19.41
2018-04-23T06:44:58.249Z,19.4
2018-04-23T06:45:58.019Z,19.45
2018-04-23T06:46:58.222Z,19.47
2018-04-23T06:47:58.255Z,19.5
2018-04-23T06:48:58.305Z,19.52
2018-04-23T06:49:58.122Z,19.52
2018-04-23T06:50:58.096Z,19.54
2018-04-23T06:51:58.153Z,19.52
2018-04-23T06:52:58.123Z,19.56
2018-04-23T06:53:58.225Z,19.53
2018-04-23T06:54:58.191Z,19.55
2018-04-23T06:55:58.245Z,19.52
2018-04-23T06:56:58.156Z,19.53
2018-04-23T06:57:58.264Z,19.54
2018-04-23T06:58:58.122Z,19.53
2018-04-23T06:59:58.260Z,19.55
2018-04-23T07:00:58.082Z,19.56
2018-04-23T07:01:58.235Z,19.55
2018-04-23T07:02:58.109Z,19.55
2018-04-23T07:03:58.294Z,19.53
2018-04-23T07:04:58.373Z,19.54
2018-04-23T07:05:58.225Z,19.56
2018-04-23T07:06:58.045Z,19.56
2018-04-23T07:07:58.219Z,19.57
2018-04-23T07:08:58.189Z,19.57
2018-04-23T07:09:58.140Z,19.57
2018-04-23T07:10:58.159Z,19.58
2018-04-23T07:11:58.179Z,19.57
2018-04-23T07:12:58.222Z,19.57
2018-04-23T07:13:58.224Z,19.59
2018-04-23T07:14:58.129Z,19.57
2018-04-23T07:15:58.153Z,19.59
2018-04-23T07:16:58.248Z,19.56
2018-04-23T07:17:58.133Z,19.61
2018-04-23T07:18:58.320Z,19.61
2018-04-23T07:19:58.367Z,19.62
2018-04-23T07:20:58.322Z,19.63
2018-04-23T07:21:58.048Z,19.66
2018-04-23T07:22:58.228Z,19.66
2018-04-23T07:23:58.058Z,19.67
2018-04-23T07:24:58.166Z,19.67
2018-04-23T07:25:58.204Z,19.66
2018-04-23T07:26:58.030Z,19.67
2018-04-23T07:27:58.327Z,19.68
2018-04-23T07:28:58.235Z,19.66
2018-04-23T07:29:58.027Z,19.66
2018-04-23T07:30:58.101Z,19.67
2018-04-23T07:31:58.052Z,19.62
2018-04-23T07:32:58.005Z,19.65
2018-04-23T07:33:58.245Z,19.66
2018-04-23T07:34:58.233Z,19.66
2018-04-23T07:35:58.175Z,19.67
2018-04-23T07:36:58.150Z,19.67
2018-04-23T07:37:58.126Z,19.65
2018-04-23T07:38:58.233Z,19.66
2018-04-23T07:39:58.223Z,19.67
2018-04-23T07:40:58.116Z,19.68
2018-04-23T07:41:58.280Z,19.67
2018-04-23T07:42:58.039Z,19.7
2018-04-23T07:43:58.224Z,19.68
2018-04-23T07:44:58.291Z,19.71
2018-04-23T07:45:58.076Z,19.7
2018-04-23T07:46:58.163Z,19.69
2018-04-23T07:47:58.090Z,19.69
2018-04-23T07:49:00.394Z,19.7
2018-04-23T07:49:58.165Z,19.71
2018-04-23T07:50:58.336Z,19.71
2018-04-23T07:51:58.101Z,19.73
2018-04-23T07:52:58.261Z,19.71
2018-04-23T07:53:58.197Z,19.71
2018-04-23T07:54:57.878Z,19.73
2018-04-23T07:55:58.303Z,19.73
2018-04-23T07:56:58.208Z,19.71
2018-04-23T07:57:58.101Z,19.73
2018-04-23T07:58:58.019Z,19.75
2018-04-23T07:59:58.323Z,19.75
2018-04-23T08:00:58.123Z,19.73
2018-04-23T08:01:58.356Z,19.74
2018-04-23T08:02:58.259Z,19.76
2018-04-23T08:03:58.131Z,19.75
2018-04-23T08:04:58.065Z,19.75
2018-04-23T08:05:58.096Z,19.76
2018-04-23T08:06:58.300Z,19.75
2018-04-23T08:07:58.093Z,19.74
2018-04-23T08:08:58.236Z,19.75
2018-04-23T08:09:58.122Z,19.76
2018-04-23T08:10:58.001Z,19.75
2018-04-23T08:11:58.079Z,19.75
2018-04-23T08:12:58.156Z,19.73
2018-04-23T08:13:58.012Z,19.75
2018-04-23T08:14:58.242Z,19.75
2018-04-23T08:15:57.988Z,19.76
2018-04-23T08:16:58.119Z,19.76
2018-04-23T08:17:58.243Z,19.76
2018-04-23T08:18:57.993Z,19.74
2018-04-23T08:19:57.992Z,19.74
2018-04-23T08:20:58.135Z,19.74
2018-04-23T08:21:58.202Z,19.74
2018-04-23T08:22:58.116Z,19.74
2018-04-23T08:23:58.117Z,19.74
2018-04-23T08:24:58.174Z,19.73
2018-04-23T08:25:58.273Z,19.71
2018-04-23T08:26:58.091Z,19.72
2018-04-23T08:27:58.144Z,19.72
2018-04-23T08:28:58.375Z,19.73
2018-04-23T08:29:58.340Z,19.71
2018-04-23T08:30:58.183Z,19.71
2018-04-23T08:31:58.535Z,19.71
2018-04-23T08:32:58.202Z,19.72
2018-04-23T08:33:58.300Z,19.71
2018-04-23T08:34:58.175Z,19.71
2018-04-23T08:35:57.985Z,19.7
2018-04-23T08:36:58.151Z,19.73
2018-04-23T08:37:58.144Z,19.7
2018-04-23T08:38:58.395Z,19.7
2018-04-23T08:39:58.326Z,19.71
2018-04-23T08:40:58.020Z,19.71
2018-04-23T08:41:58.250Z,19.69
2018-04-23T08:42:58.090Z,19.7
2018-04-23T08:43:58.770Z,19.69
2018-04-23T08:44:58.059Z,19.71
2018-04-23T08:45:58.327Z,19.71
2018-04-23T08:46:58.075Z,19.7
2018-04-23T08:47:58.120Z,19.7
2018-04-23T08:48:58.426Z,19.7
2018-04-23T08:49:58.055Z,19.7
2018-04-23T08:50:58.005Z,19.71
2018-04-23T08:51:58.220Z,19.71
2018-04-23T08:52:58.035Z,19.7
2018-04-23T08:53:58.138Z,19.72
2018-04-23T08:54:58.152Z,19.74
2018-04-23T08:55:58.177Z,19.74
2018-04-23T08:56:58.084Z,19.74
2018-04-23T08:57:58.242Z,19.73
2018-04-23T08:58:58.083Z,19.74
2018-04-23T08:59:58.202Z,19.75
2018-04-23T09:00:58.089Z,19.74
2018-04-23T09:01:58.084Z,19.75
2018-04-23T09:02:58.177Z,19.73
2018-04-23T09:03:58.265Z,19.75
2018-04-23T09:04:58.125Z,19.74
2018-04-23T09:05:58.215Z,19.75
2018-04-23T09:06:58.172Z,19.74
2018-04-23T09:07:58.133Z,19.72
2018-04-23T09:08:58.311Z,19.75
2018-04-23T09:09:58.041Z,19.76
2018-04-23T09:10:58.149Z,19.75
2018-04-23T09:11:57.992Z,19.74
2018-04-23T09:12:57.983Z,19.74
2018-04-23T09:13:58.094Z,19.75
2018-04-23T09:14:58.228Z,19.75
2018-04-23T09:15:58.010Z,19.74
2018-04-23T09:16:58.190Z,19.74
2018-04-23T09:17:58.255Z,19.75
2018-04-23T09:18:58.010Z,19.75
2018-04-23T09:19:58.108Z,19.77
2018-04-23T09:20:58.118Z,19.74
2018-04-23T09:21:58.155Z,19.75
2018-04-23T09:22:58.103Z,19.77
2018-04-23T09:23:58.119Z,19.77
2018-04-23T09:24:58.122Z,19.77
2018-04-23T09:25:58.207Z,19.79
2018-04-23T09:26:58.250Z,19.79
2018-04-23T09:27:58.093Z,19.76
2018-04-23T09:28:58.203Z,19.77
2018-04-23T09:29:58.049Z,19.77
2018-04-23T09:30:58.113Z,19.79
2018-04-23T09:31:58.144Z,19.79
2018-04-23T09:32:58.253Z,19.76
2018-04-23T09:33:58.209Z,19.79
2018-04-23T09:34:57.834Z,19.77
2018-04-23T09:36:00.516Z,19.79
2018-04-23T09:36:58.149Z,19.79
2018-04-23T09:37:58.250Z,19.79
2018-04-23T09:38:58.428Z,19.79
2018-04-23T09:39:58.008Z,19.8
2018-04-23T09:40:58.113Z,19.77
2018-04-23T09:41:58.042Z,19.79
2018-04-23T09:42:58.316Z,19.8
2018-04-23T09:43:58.066Z,19.79
2018-04-23T09:44:58.187Z,19.8
2018-04-23T09:45:57.972Z,19.8
2018-04-23T09:46:58.099Z,19.82
2018-04-23T09:47:58.276Z,19.8
2018-04-23T09:48:57.994Z,19.8
2018-04-23T09:49:58.146Z,19.82
2018-04-23T09:50:58.218Z,19.82
2018-04-23T09:51:58.178Z,19.83
2018-04-23T09:52:58.422Z,19.8
2018-04-23T09:53:58.234Z,19.83
2018-04-23T09:54:58.144Z,19.82
2018-04-23T09:55:58.237Z,19.82
2018-04-23T09:56:58.024Z,19.83
2018-04-23T09:57:58.228Z,19.82
2018-04-23T09:58:58.133Z,19.81
2018-04-23T09:59:58.211Z,19.82
2018-04-23T10:00:58.095Z,19.82
2018-04-23T10:01:58.247Z,19.8
2018-04-23T10:03:00.790Z,19.84
2018-04-23T10:03:58.171Z,19.83
2018-04-23T10:04:58.144Z,19.79
2018-04-23T10:05:58.272Z,19.81
2018-04-23T10:06:58.253Z,19.81
2018-04-23T10:07:58.266Z,19.82
2018-04-23T10:08:58.174Z,19.8
2018-04-23T10:09:58.058Z,19.8
2018-04-23T10:10:58.234Z,19.79
2018-04-23T10:11:58.193Z,19.81
2018-04-23T10:12:58.478Z,19.8
2018-04-23T10:13:58.253Z,19.82
2018-04-23T10:14:58.158Z,19.82
2018-04-23T10:15:57.970Z,19.8
2018-04-23T10:16:58.229Z,19.83
2018-04-23T10:17:58.140Z,19.82
2018-04-23T10:18:58.171Z,19.85
2018-04-23T10:19:58.040Z,19.82
2018-04-23T10:20:58.352Z,19.82
2018-04-23T10:21:58.070Z,19.83
2018-04-23T10:22:58.129Z,19.83
2018-04-23T10:23:58.224Z,19.82
2018-04-23T10:24:58.152Z,19.82
2018-04-23T10:25:58.080Z,19.81
2018-04-23T10:26:58.170Z,19.79
2018-04-23T10:27:58.206Z,19.76
2018-04-23T10:28:58.024Z,19.77
2018-04-23T10:29:58.048Z,19.76
2018-04-23T10:30:58.177Z,19.74
2018-04-23T10:31:58.240Z,19.73
2018-04-23T10:32:58.202Z,19.71
2018-04-23T10:33:58.146Z,19.71
2018-04-23T10:34:58.021Z,19.68
2018-04-23T10:35:58.078Z,19.68
2018-04-23T10:36:58.139Z,19.67
2018-04-23T10:37:58.029Z,19.66
2018-04-23T10:38:58.429Z,19.66
2018-04-23T10:39:57.977Z,19.63
2018-04-23T10:40:58.195Z,19.62
2018-04-23T10:41:58.433Z,19.63
2018-04-23T10:42:58.181Z,19.65
2018-04-23T10:43:58.133Z,19.61
2018-04-23T10:44:57.946Z,19.61
2018-04-23T10:45:58.136Z,19.61
2018-04-23T10:46:58.081Z,19.59
2018-04-23T10:47:58.154Z,19.59
2018-04-23T10:48:58.173Z,19.61
2018-04-23T10:49:58.226Z,19.59
2018-04-23T10:50:58.346Z,19.56
2018-04-23T10:51:58.125Z,19.59
2018-04-23T10:52:58.207Z,19.58
2018-04-23T10:53:58.343Z,19.58
2018-04-23T10:54:58.342Z,19.56
2018-04-23T10:55:58.133Z,19.55
2018-04-23T10:56:58.001Z,19.53
2018-04-23T10:57:58.201Z,19.56
2018-04-23T10:58:58.011Z,19.53
2018-04-23T10:59:58.222Z,19.52
2018-04-23T11:00:58.188Z,19.52
2018-04-23T11:01:58.000Z,19.51
2018-04-23T11:02:58.245Z,19.51
2018-04-23T11:03:57.976Z,19.52
2018-04-23T11:04:58.440Z,19.5
2018-04-23T11:05:58.208Z,19.5
2018-04-23T11:06:58.035Z,19.5
2018-04-23T11:07:58.248Z,19.5
2018-04-23T11:08:57.968Z,19.5
2018-04-23T11:09:58.235Z,19.5
2018-04-23T11:10:58.104Z,19.48
2018-04-23T11:11:58.144Z,19.54
2018-04-23T11:12:58.123Z,19.57
2018-04-23T11:13:57.986Z,19.57
2018-04-23T11:14:58.335Z,19.66
2018-04-23T11:15:58.099Z,19.77
2018-04-23T11:16:58.162Z,19.77
2018-04-23T11:17:58.139Z,19.74
2018-04-23T11:18:58.264Z,19.73
2018-04-23T11:19:58.012Z,19.74
2018-04-23T11:20:58.141Z,19.83
2018-04-23T11:21:58.047Z,19.88
2018-04-23T11:22:58.115Z,19.81
2018-04-23T11:23:58.129Z,19.79
2018-04-23T11:24:57.940Z,19.8
2018-04-23T11:25:57.964Z,19.81
2018-04-23T11:26:58.088Z,19.75
2018-04-23T11:27:58.159Z,19.8
2018-04-23T11:28:58.008Z,19.76
2018-04-23T11:29:58.054Z,19.82
2018-04-23T11:30:58.140Z,19.85
2018-04-23T11:31:57.951Z,19.92
2018-04-23T11:32:58.087Z,19.98
2018-04-23T11:33:58.142Z,19.92
2018-04-23T11:34:58.094Z,19.89
2018-04-23T11:35:58.015Z,19.9
2018-04-23T11:36:58.249Z,19.84
2018-04-23T11:37:58.032Z,19.82
2018-04-23T11:38:58.048Z,19.85
2018-04-23T11:39:58.142Z,19.81
2018-04-23T11:40:58.076Z,19.75
2018-04-23T11:41:58.228Z,19.82
2018-04-23T11:42:58.482Z,19.81
2018-04-23T11:43:58.112Z,19.76
2018-04-23T11:44:58.156Z,19.8
2018-04-23T11:45:57.844Z,19.79
2018-04-23T11:46:58.079Z,19.77
2018-04-23T11:47:58.205Z,19.79
2018-04-23T11:48:58.141Z,19.82
2018-04-23T11:49:57.935Z,19.81
2018-04-23T11:50:58.190Z,19.76
2018-04-23T11:51:58.003Z,19.79
2018-04-23T11:52:58.143Z,19.77
2018-04-23T11:53:58.171Z,19.77
2018-04-23T11:54:58.132Z,19.83
2018-04-23T11:55:58.346Z,19.83
2018-04-23T11:56:58.158Z,19.86
2018-04-23T11:57:58.085Z,19.87
2018-04-23T11:58:58.187Z,19.85
2018-04-23T11:59:58.057Z,19.86
2018-04-23T12:00:58.206Z,19.87
2018-04-23T12:01:57.939Z,19.86
2018-04-23T12:02:58.121Z,19.84
2018-04-23T12:03:58.035Z,19.88
2018-04-23T12:04:58.218Z,19.87
2018-04-23T12:33:56.686Z,20.19
2018-04-23T12:34:56.488Z,20.16
2018-04-23T12:35:58.212Z,20.19
2018-04-23T12:36:58.034Z,20.18
2018-04-23T12:40:31.111Z,20.12
2018-04-23T12:41:31.118Z,20.12
2018-04-23T12:42:31.112Z,20.12
2018-04-23T12:43:31.001Z,20.09
2018-04-23T12:44:31.285Z,20.12
2018-04-23T12:45:31.131Z,20.06
2018-04-23T12:46:31.263Z,20.05
2018-04-23T12:47:31.201Z,20.04
2018-04-23T12:48:31.091Z,20.04
2018-04-23T12:49:05.693Z,20.04
2018-04-23T12:50:05.748Z,20.06
2018-04-23T12:51:06.064Z,20.13
2018-04-23T12:52:05.903Z,20.13
2018-04-23T12:53:05.986Z,20.12
2018-04-23T12:54:06.137Z,20.07
2018-04-23T12:55:06.029Z,20.06
2018-04-23T12:56:05.870Z,20.06
2018-04-23T12:57:05.932Z,20.01
2018-04-23T12:58:05.706Z,20.01
2018-04-23T12:59:06.053Z,19.99
2018-04-23T13:00:05.838Z,19.99
2018-04-23T13:01:05.894Z,19.97
2018-04-23T13:02:05.703Z,19.95
2018-04-23T13:03:05.714Z,19.94
2018-04-23T13:04:05.967Z,19.91
2018-04-23T13:05:05.767Z,19.91
2018-04-23T13:06:06.128Z,19.94
2018-04-23T13:07:05.967Z,19.92
2018-04-23T13:08:05.954Z,19.91
2018-04-23T13:09:06.061Z,19.91
2018-04-23T13:10:06.058Z,19.91
2018-04-23T13:11:05.780Z,19.9
2018-04-23T13:12:05.710Z,19.88
2018-04-23T13:13:05.855Z,19.89
2018-04-23T13:14:06.037Z,19.87
2018-04-23T13:15:05.768Z,19.86
2018-04-23T13:16:05.904Z,19.85
2018-04-23T13:17:05.914Z,19.87
2018-04-23T13:18:05.689Z,19.86
2018-04-23T13:19:06.016Z,19.86
2018-04-23T13:20:05.956Z,19.84
2018-04-23T13:21:05.691Z,19.84
2018-04-23T13:22:05.905Z,19.85
2018-04-23T13:23:06.002Z,19.85
2018-04-23T13:24:05.912Z,19.82
2018-04-23T13:25:06.026Z,19.84